sim
Sign-in with your pilot id or email,
or register
Callsign
Passwort

Schedule Details

Flight Number: DLH871 (2)
Departure: Tromso Airport (ENTC) at 13:25
Arrival: Frankfurt Airport (EDDF) at 16:55
Route: Lufthansa Passenger Schedule. Enter filed route here before submitting Pirep.

Weather Information
Getting current METAR information for ENTC 200020Z 19017KT 9999 BKN025 06/03 Q1006 RMK WIND 2600FT 18024KT
Getting current METAR information for EDDF 200020Z 05004KT CAVOK 12/06 Q1016 NOSIG

Schedule Frequency

Route Map